Time;durP1;ratioP1;P1;durP2;ratioP2;P2;SDS_P1;SDS_P2;PMS_P1;PMS_P2;Temp;Humidity;BMP_temperature;BMP_pressure;BME280_temperature;BME280_humidity;BME280_pressure;Samples;Min_cycle;Max_cycle;Signal;HPM_P1;HPM_P2
2023/01/31 00:01:26;;;;;;;74.07;31.63;;;77.70;2227.20;;;;;;5070084;28;20056;-76
2023/01/31 00:03:54;;;;;;;70.60;31.05;;;77.70;2227.20;;;;;;5067231;28;20021;-77
2023/01/31 00:06:29;;;;;;;74.25;31.60;;;77.60;2227.20;;;;;;5047586;28;20140;-77
2023/01/31 00:08:56;;;;;;;59.90;27.80;;;77.50;2227.20;;;;;;5049751;28;20040;-76
2023/01/31 00:11:23;;;;;;;59.05;28.05;;;77.50;2227.20;;;;;;5043617;28;20382;-76
2023/01/31 00:13:50;;;;;;;60.35;29.65;;;77.50;2227.20;;;;;;5049019;28;20470;-77
2023/01/31 00:16:16;;;;;;;62.55;26.58;;;77.50;2227.20;;;;;;5047379;28;20108;-77
2023/01/31 00:18:43;;;;;;;64.40;28.33;;;77.60;2227.20;;;;;;5063221;28;20021;-77
2023/01/31 00:21:29;;;;;;;63.83;27.00;;;77.50;2227.20;;;;;;5043189;28;20112;-76
2023/01/31 00:23:56;;;;;;;55.90;25.50;;;77.60;2227.20;;;;;;5061748;28;20543;-76
2023/01/31 00:26:31;;;;;;;60.05;26.88;;;77.60;2227.20;;;;;;5047431;28;20494;-77
2023/01/31 00:28:59;;;;;;;65.53;27.10;;;77.70;2227.20;;;;;;5048053;28;20032;-76
2023/01/31 00:31:26;;;;;;;58.85;27.20;;;77.60;2227.20;;;;;;5044890;28;20028;-76
2023/01/31 00:33:53;;;;;;;56.65;24.85;;;77.60;2227.20;;;;;;5041383;28;20021;-76
2023/01/31 00:36:23;;;;;;;54.95;25.55;;;77.60;2227.20;;;;;;5066622;28;20017;-76
2023/01/31 00:38:51;;;;;;;57.65;24.42;;;77.60;2227.20;;;;;;5048781;28;20113;-77
2023/01/31 00:41:18;;;;;;;61.03;25.60;;;77.60;2227.20;;;;;;5049863;28;20102;-77
2023/01/31 00:43:44;;;;;;;49.05;23.77;;;77.60;2227.20;;;;;;5062522;28;20032;-76
2023/01/31 00:46:10;;;;;;;;;;;77.60;2227.20;;;;;;5051043;28;20036;-77
2023/01/31 00:48:35;;;;;;;52.15;23.50;;;77.60;2227.20;;;;;;5066753;28;19911;-77
2023/01/31 00:51:01;;;;;;;;;;;77.70;2227.20;;;;;;5048770;28;20037;-78
2023/01/31 00:53:26;;;;;;;48.40;21.42;;;77.70;2227.20;;;;;;5050592;28;19995;-76
2023/01/31 00:55:53;;;;;;;;;;;77.70;2227.20;;;;;;5067274;28;20271;-77
2023/01/31 00:58:19;;;;;;;36.70;16.17;;;77.70;2227.20;;;;;;5067140;28;19911;-77
2023/01/31 01:00:45;;;;;;;43.13;19.88;;;77.60;2227.20;;;;;;5052845;28;20082;-76
2023/01/31 01:03:12;;;;;;;46.67;20.92;;;77.70;2227.20;;;;;;5052009;28;20056;-76
2023/01/31 01:05:37;;;;;;;;;;;77.60;2227.20;;;;;;5063291;28;20045;-76
2023/01/31 01:08:03;;;;;;;37.70;17.58;;;77.60;2227.20;;;;;;5055988;28;19905;-76
2023/01/31 01:10:28;;;;;;;;;;;77.60;2227.20;;;;;;5068640;28;20028;-76
2023/01/31 01:12:54;;;;;;;38.15;17.70;;;77.70;2227.20;;;;;;5055850;28;19904;-76
2023/01/31 01:15:20;;;;;;;;;;;77.70;2227.20;;;;;;5072141;28;20025;-76
2023/01/31 01:17:45;;;;;;;35.35;17.08;;;77.70;2227.20;;;;;;5062783;28;19959;-76
2023/01/31 01:20:11;;;;;;;;;;;77.70;2227.20;;;;;;5064693;28;20555;-76
2023/01/31 01:22:37;;;;;;;32.47;15.45;;;102.40;2227.20;;;;;;5045744;28;19912;-76
2023/01/31 01:25:05;;;;;;;33.88;15.55;;;102.40;2227.20;;;;;;5062320;28;20053;-76
2023/01/31 01:27:30;;;;;;;35.65;15.15;;;102.50;2227.20;;;;;;5045320;28;20175;-76
2023/01/31 01:29:57;;;;;;;;;;;102.50;2227.20;;;;;;5063981;28;20150;-76
2023/01/31 01:32:23;;;;;;;37.37;16.27;;;102.50;2227.20;;;;;;5062648;28;19904;-76
2023/01/31 01:34:48;;;;;;;;;;;102.50;2227.20;;;;;;5064817;28;20025;-77
2023/01/31 01:37:18;;;;;;;35.63;15.15;;;102.50;2227.20;;;;;;5045193;28;19904;-77
2023/01/31 01:39:49;;;;;;;28.40;14.48;;;102.40;2227.20;;;;;;5044542;28;20061;-76
2023/01/31 01:42:20;;;;;;;29.52;14.02;;;102.50;2227.20;;;;;;5045761;28;20048;-76
2023/01/31 01:45:00;;;;;;;28.38;13.38;;;102.50;2227.20;;;;;;5064280;28;20032;-76
2023/01/31 01:47:49;;;;;;;32.35;13.98;;;102.50;2227.20;;;;;;5048388;28;20082;-76
2023/01/31 01:50:22;;;;;;;32.47;13.32;;;102.40;2227.20;;;;;;5050390;28;20390;-77
2023/01/31 01:53:15;;;;;;;28.52;13.10;;;102.40;2227.20;;;;;;5044123;28;20045;-76
2023/01/31 01:56:06;;;;;;;34.42;14.05;;;102.50;2227.20;;;;;;5062282;28;20504;-78
2023/01/31 01:58:42;;;;;;;28.80;14.27;;;102.40;2227.20;;;;;;5043324;28;20032;-75
2023/01/31 02:01:09;;;;;;;31.13;13.48;;;102.50;2227.20;;;;;;5044230;28;20066;-76
2023/01/31 02:03:37;;;;;;;29.45;13.73;;;102.50;2227.20;;;;;;5047005;28;20056;-77
2023/01/31 02:06:05;;;;;;;25.80;13.73;;;102.50;2227.20;;;;;;5062378;28;20466;-76
2023/01/31 02:08:33;;;;;;;29.00;13.25;;;102.50;2227.20;;;;;;5046261;28;20025;-76
2023/01/31 02:11:27;;;;;;;24.33;12.25;;;102.60;2227.20;;;;;;5044190;28;20041;-77
2023/01/31 02:14:01;;;;;;;27.33;13.23;;;102.50;2227.20;;;;;;5059960;28;20167;-76
2023/01/31 02:16:27;;;;;;;27.02;11.25;;;102.60;2227.20;;;;;;5043956;28;20486;-77
2023/01/31 02:18:53;;;;;;;;;;;102.60;2227.20;;;;;;5046429;28;20545;-77
2023/01/31 02:21:34;;;;;;;27.60;12.07;;;102.60;2227.20;;;;;;5044213;28;19982;-76
2023/01/31 02:24:12;;;;;;;26.77;12.70;;;102.70;2227.20;;;;;;5063441;28;20032;-76
2023/01/31 02:26:40;;;;;;;21.95;10.77;;;102.70;2227.20;;;;;;5048894;28;20040;-77
2023/01/31 02:29:21;;;;;;;30.88;12.23;;;102.70;2227.20;;;;;;5048083;28;20032;-77
2023/01/31 02:32:10;;;;;;;24.30;11.50;;;102.80;2227.20;;;;;;5049333;28;20068;-76
2023/01/31 02:34:59;;;;;;;27.73;10.43;;;102.80;2227.20;;;;;;5059072;28;20035;-77
2023/01/31 02:37:43;;;;;;;24.50;11.77;;;102.80;2227.20;;;;;;5045384;28;20074;-77
2023/01/31 02:40:24;;;;;;;22.23;11.07;;;102.80;2227.20;;;;;;5049942;28;20127;-77
2023/01/31 02:43:21;;;;;;;21.98;10.95;;;102.80;2227.20;;;;;;5049959;28;20107;-76
2023/01/31 02:46:16;;;;;;;;;;;102.80;2227.20;;;;;;5047456;28;20068;-77
2023/01/31 02:48:53;;;;;;;23.20;10.40;;;102.80;2227.20;;;;;;4995204;28;20363;-76
2023/01/31 02:51:28;;;;;;;21.23;9.82;;;102.80;2227.20;;;;;;4976944;28;20026;-76
2023/01/31 02:54:04;;;;;;;19.83;9.60;;;102.80;2227.20;;;;;;4978669;28;20057;-77
2023/01/31 02:56:33;;;;;;;16.23;8.13;;;102.90;2227.20;;;;;;4978674;28;20026;-77
2023/01/31 02:59:05;;;;;;;22.67;11.23;;;102.90;2227.20;;;;;;4970539;28;20034;-77
2023/01/31 03:01:34;;;;;;;21.92;11.27;;;102.90;2227.20;;;;;;4993891;28;20034;-77
2023/01/31 03:04:05;;;;;;;23.63;10.43;;;102.90;2227.20;;;;;;4994864;28;20138;-78
2023/01/31 03:06:34;;;;;;;22.35;9.60;;;102.90;2227.20;;;;;;4994695;28;20050;-77
2023/01/31 03:09:10;;;;;;;22.38;10.55;;;102.90;2227.20;;;;;;4994535;28;20101;-79
2023/01/31 03:11:54;;;;;;;20.67;10.90;;;102.90;2227.20;;;;;;4994710;28;20031;-78
2023/01/31 03:14:34;;;;;;;21.33;10.43;;;102.90;2227.20;;;;;;4978024;28;20276;-77
2023/01/31 03:17:33;;;;;;;22.52;10.43;;;102.90;2227.20;;;;;;4994460;28;20080;-77
2023/01/31 03:20:14;;;;;;;20.10;10.13;;;102.90;2227.20;;;;;;4994335;28;20022;-77
2023/01/31 03:22:45;;;;;;;21.98;9.23;;;103.00;2227.20;;;;;;4977714;28;20108;-77
2023/01/31 03:25:14;;;;;;;21.75;10.40;;;103.00;2227.20;;;;;;5027188;28;20060;-78
2023/01/31 03:27:42;;;;;;;18.25;9.05;;;103.10;2227.20;;;;;;5037810;28;20518;-77
2023/01/31 03:30:15;;;;;;;20.35;8.73;;;103.10;2227.20;;;;;;5037720;28;20036;-77
2023/01/31 03:32:50;;;;;;;19.33;9.50;;;103.20;2227.20;;;;;;5037860;28;20021;-78
2023/01/31 03:35:17;;;;;;;25.77;9.38;;;103.20;2227.20;;;;;;5055115;28;20099;-77
2023/01/31 03:37:52;;;;;;;20.25;9.48;;;103.20;2227.20;;;;;;5055303;28;20025;-77
2023/01/31 03:40:37;;;;;;;24.33;9.15;;;103.20;2227.20;;;;;;5055339;28;20028;-77
2023/01/31 03:43:36;;;;;;;21.52;9.27;;;103.30;2227.20;;;;;;5037118;28;20049;-77
2023/01/31 03:46:10;;;;;;;20.30;9.40;;;103.20;2227.20;;;;;;5037602;28;20036;-77
2023/01/31 03:48:41;;;;;;;19.35;8.77;;;103.20;2227.20;;;;;;5055249;28;20021;-77
2023/01/31 03:51:12;;;;;;;22.33;9.80;;;103.20;2227.20;;;;;;5037258;28;20029;-77
2023/01/31 03:53:42;;;;;;;19.88;9.18;;;103.30;2227.20;;;;;;5054306;28;20111;-77
2023/01/31 03:56:24;;;;;;;20.20;9.57;;;103.20;2227.20;;;;;;5054918;28;20087;-77
2023/01/31 03:58:56;;;;;;;22.10;10.18;;;103.20;2227.20;;;;;;5037156;28;20021;-77
2023/01/31 04:01:26;;;;;;;21.25;10.65;;;103.20;2227.20;;;;;;5036984;28;20023;-77
2023/01/31 04:04:00;;;;;;;19.95;10.35;;;103.20;2227.20;;;;;;5036481;28;20410;-78
2023/01/31 04:06:26;;;;;;;23.42;10.15;;;103.20;2227.20;;;;;;5037113;28;20479;-81
2023/01/31 04:08:52;;;;;;;20.27;9.98;;;103.20;2227.20;;;;;;5036389;28;20112;-75
2023/01/31 04:11:19;;;;;;;;;;;103.30;2227.20;;;;;;5037316;28;20120;-77
2023/01/31 04:13:45;;;;;;;19.35;8.77;;;103.20;2227.20;;;;;;5054586;28;19991;-81
2023/01/31 04:16:10;;;;;;;;;;;103.20;2227.20;;;;;;5055245;28;20175;-77
2023/01/31 04:18:36;;;;;;;17.55;9.02;;;103.30;2227.20;;;;;;5037055;28;20378;-77
2023/01/31 04:21:01;;;;;;;;;;;103.20;2227.20;;;;;;5036974;28;20048;-77
2023/01/31 04:23:27;;;;;;;24.63;10.50;;;103.20;2227.20;;;;;;5036262;28;20397;-77
2023/01/31 04:25:56;;;;;;;;;;;103.20;2227.20;;;;;;5037151;28;20076;-77
2023/01/31 04:28:22;;;;;;;19.40;9.13;;;103.20;2227.20;;;;;;5054467;28;19909;-77
2023/01/31 04:30:51;;;;;;;;;;;103.20;2227.20;;;;;;5037135;28;20437;-77
2023/01/31 04:33:17;;;;;;;21.08;9.43;;;103.30;2227.20;;;;;;5036841;28;19912;-77
2023/01/31 04:35:42;;;;;;;;;;;103.20;2227.20;;;;;;5036212;28;20037;-77
2023/01/31 04:38:08;;;;;;;19.33;10.00;;;103.20;2227.20;;;;;;5035838;28;20282;-77
2023/01/31 04:40:33;;;;;;;;;;;103.20;2227.20;;;;;;5054928;28;20021;-78
2023/01/31 04:42:59;;;;;;;21.00;8.15;;;103.10;2227.20;;;;;;5036347;28;20006;-77
2023/01/31 04:45:25;;;;;;;;;;;103.10;2227.20;;;;;;5035853;28;20040;-77
2023/01/31 04:47:50;;;;;;;22.02;8.82;;;103.10;2227.20;;;;;;5035284;28;20404;-77
2023/01/31 04:50:16;;;;;;;;;;;103.10;2227.20;;;;;;5036881;28;20029;-77
2023/01/31 04:52:42;;;;;;;20.02;8.93;;;103.10;2227.20;;;;;;5035694;28;20351;-77
2023/01/31 04:55:07;;;;;;;;;;;103.10;2227.20;;;;;;5036663;28;20120;-77
2023/01/31 04:57:33;;;;;;;17.45;8.10;;;103.10;2227.20;;;;;;5036246;28;19905;-77
2023/01/31 04:59:59;;;;;;;;;;;103.00;2227.20;;;;;;5036172;28;20059;-77
2023/01/31 05:02:24;;;;;;;17.88;7.53;;;103.10;2227.20;;;;;;5036137;28;19905;-78
2023/01/31 05:04:50;;;;;;;;;;;103.10;2227.20;;;;;;5036333;28;20594;-77
2023/01/31 05:07:16;;;;;;;17.60;8.27;;;103.10;2227.20;;;;;;5035437;28;19905;-77
2023/01/31 05:09:42;;;;;;;;;;;103.10;2227.20;;;;;;5054135;28;20021;-77
2023/01/31 05:12:08;;;;;;;17.83;7.25;;;103.20;2227.20;;;;;;5035437;28;19912;-77
2023/01/31 05:14:34;;;;;;;;;;;103.10;2227.20;;;;;;5036215;28;20387;-79
2023/01/31 05:16:59;;;;;;;19.95;8.60;;;103.10;2227.20;;;;;;5035805;28;20367;-77
2023/01/31 05:19:25;;;;;;;;;;;103.20;2227.20;;;;;;5053989;28;20467;-77
2023/01/31 05:21:53;;;;;;;15.98;7.93;;;103.20;2227.20;;;;;;5052671;28;19963;-79
2023/01/31 05:24:21;;;;;;;18.85;7.55;;;103.20;2227.20;;;;;;5053369;28;20395;-79
2023/01/31 05:26:46;;;;;;;15.15;7.97;;;103.20;2227.20;;;;;;5053471;28;20427;-77
2023/01/31 05:29:12;;;;;;;;;;;103.20;2227.20;;;;;;5035988;28;20060;-78
2023/01/31 05:31:38;;;;;;;18.58;8.20;;;103.20;2227.20;;;;;;5035667;28;19908;-77
2023/01/31 05:34:04;;;;;;;;;;;103.20;2227.20;;;;;;5035933;28;20175;-78
2023/01/31 05:36:29;;;;;;;19.83;8.35;;;103.20;2227.20;;;;;;5035138;28;19904;-77
2023/01/31 05:38:55;;;;;;;;;;;103.10;2227.20;;;;;;5035019;28;20040;-77
2023/01/31 05:41:20;;;;;;;21.08;7.95;;;103.20;2227.20;;;;;;5053254;28;19912;-77
2023/01/31 05:43:46;;;;;;;;;;;103.10;2227.20;;;;;;5035762;28;20112;-77
2023/01/31 05:46:12;;;;;;;19.27;7.53;;;103.10;2227.20;;;;;;5035182;28;19920;-79
2023/01/31 05:48:37;;;;;;;;;;;103.10;2227.20;;;;;;5035292;28;20060;-77
2023/01/31 05:51:03;;;;;;;16.75;6.85;;;103.10;2227.20;;;;;;5035216;28;19916;-78
2023/01/31 05:53:29;;;;;;;;;;;103.10;2227.20;;;;;;5034839;28;20044;-77
2023/01/31 05:55:54;;;;;;;22.15;8.70;;;103.10;2227.20;;;;;;5052868;28;19972;-77
2023/01/31 05:58:20;;;;;;;;;;;103.00;2227.20;;;;;;5035253;28;20025;-79
2023/01/31 06:00:46;;;;;;;16.15;7.68;;;103.00;2227.20;;;;;;5034910;28;19905;-78
2023/01/31 06:03:11;;;;;;;;;;;103.00;2227.20;;;;;;5035636;28;20411;-77
2023/01/31 06:05:39;;;;;;;16.15;7.32;;;103.10;2227.20;;;;;;5034636;28;20371;-77
2023/01/31 06:08:05;;;;;;;12.88;6.75;;;103.10;2227.20;;;;;;5034968;28;20017;-77
2023/01/31 06:10:31;;;;;;;15.40;7.45;;;103.10;2227.20;;;;;;5052778;28;20035;-77
2023/01/31 06:12:56;;;;;;;;;;;103.10;2227.20;;;;;;5053350;28;20021;-77
2023/01/31 06:15:22;;;;;;;18.48;8.80;;;103.20;2227.20;;;;;;5034966;28;19905;-77
2023/01/31 06:17:48;;;;;;;;;;;103.20;2227.20;;;;;;5052596;28;20033;-77
2023/01/31 06:20:13;;;;;;;13.75;7.05;;;103.20;2227.20;;;;;;5052885;28;19911;-77
2023/01/31 06:22:40;;;;;;;;;;;103.20;2227.20;;;;;;5035375;28;20052;-79
2023/01/31 06:25:06;;;;;;;14.13;6.83;;;103.20;2227.20;;;;;;5034818;28;19970;-77
2023/01/31 06:27:32;;;;;;;;;;;103.20;2227.20;;;;;;5052798;28;20353;-77
2023/01/31 06:29:58;;;;;;;14.03;5.87;;;103.10;2227.20;;;;;;5060948;28;19904;-77
2023/01/31 06:32:23;;;;;;;;;;;103.10;2227.20;;;;;;5067004;28;20665;-77
2023/01/31 06:34:49;;;;;;;18.95;6.18;;;103.20;2227.20;;;;;;5049170;28;19904;-77
2023/01/31 06:37:14;;;;;;;;;;;103.10;2227.20;;;;;;5065743;28;20108;-78
2023/01/31 06:39:40;;;;;;;14.45;7.20;;;103.20;2227.20;;;;;;5061984;28;19975;-77
2023/01/31 06:42:06;;;;;;;;;;;103.10;2227.20;;;;;;5046689;28;20467;-78
2023/01/31 06:44:36;;;;;;;16.95;7.25;;;103.00;2227.20;;;;;;5062309;28;20282;-75
2023/01/31 06:47:02;;;;;;;19.15;6.93;;;103.10;2227.20;;;;;;5046652;28;20028;-75
2023/01/31 06:49:28;;;;;;;;;;;103.10;2227.20;;;;;;5060605;28;20038;-75
2023/01/31 06:51:53;;;;;;;13.07;6.55;;;103.20;2227.20;;;;;;5053164;28;20366;-75
2023/01/31 06:54:19;;;;;;;;;;;103.20;2227.20;;;;;;5044258;28;20036;-77
2023/01/31 06:56:44;;;;;;;16.30;6.82;;;103.20;2227.20;;;;;;5061390;28;19994;-77
2023/01/31 06:59:10;;;;;;;;;;;103.20;2227.20;;;;;;5059790;28;20116;-76
2023/01/31 07:01:36;;;;;;;17.67;7.47;;;103.30;2227.20;;;;;;5061170;28;19935;-77
2023/01/31 07:04:01;;;;;;;;;;;103.20;2227.20;;;;;;5050796;28;20054;-78
2023/01/31 07:06:27;;;;;;;18.65;7.82;;;103.20;2227.20;;;;;;5046204;28;19920;-78
2023/01/31 07:08:53;;;;;;;;;;;103.20;2227.20;;;;;;5046699;28;20446;-77
2023/01/31 07:11:18;;;;;;;17.90;7.60;;;103.20;2227.20;;;;;;5050497;28;19904;-77
2023/01/31 07:13:46;;;;;;;;;;;103.20;2227.20;;;;;;5068092;28;20070;-77
2023/01/31 07:16:13;;;;;;;15.18;7.30;;;103.20;2227.20;;;;;;5049377;28;19904;-78
2023/01/31 07:18:38;;;;;;;13.75;6.03;;;103.30;2227.20;;;;;;5065442;28;20100;-76
2023/01/31 07:21:05;;;;;;;;;;;103.30;2227.20;;;;;;5063005;28;20103;-77
2023/01/31 07:23:30;;;;;;;14.23;6.65;;;103.30;2227.20;;;;;;5042434;28;19922;-77
2023/01/31 07:25:56;;;;;;;;;;;103.30;2227.20;;;;;;5041425;28;20036;-76
2023/01/31 07:28:22;;;;;;;13.88;6.20;;;103.30;2227.20;;;;;;5045773;28;19904;-76
2023/01/31 07:30:47;;;;;;;;;;;128.00;2252.80;;;;;;5043301;28;20363;-76
2023/01/31 07:33:13;;;;;;;14.63;6.95;;;128.00;2252.80;;;;;;5067200;28;19926;-75
2023/01/31 07:35:40;;;;;;;;;;;128.00;2252.80;;;;;;5069066;28;20067;-77
2023/01/31 07:38:06;;;;;;;13.40;5.30;;;128.10;2252.80;;;;;;5064564;28;19909;-75
2023/01/31 07:40:31;;;;;;;;;;;128.10;2252.80;;;;;;5048263;28;20031;-75
2023/01/31 07:42:58;;;;;;;13.95;7.32;;;128.20;2252.80;;;;;;5063889;28;19905;-75
2023/01/31 07:45:24;;;;;;;11.07;5.38;;;128.20;2252.80;;;;;;5070555;28;20040;-76
2023/01/31 07:47:50;;;;;;;11.93;5.72;;;128.20;2252.80;;;;;;5049233;28;20027;-79
2023/01/31 07:50:16;;;;;;;10.20;5.60;;;128.40;2252.80;;;;;;5047071;28;20017;-78
2023/01/31 07:52:42;;;;;;;18.63;6.80;;;128.50;2252.80;;;;;;5047233;28;20095;-78
2023/01/31 07:55:08;;;;;;;;;;;128.60;2252.80;;;;;;5048344;28;20029;-77
2023/01/31 07:57:33;;;;;;;9.57;5.53;;;128.70;2252.80;;;;;;5045422;28;19950;-77
2023/01/31 08:00:00;;;;;;;;;;;128.70;2252.80;;;;;;5041283;28;20151;-77
2023/01/31 08:05:12;;;;;;;13.20;5.30;;;128.70;2252.80;;;;;;5060296;28;20395;-77
2023/01/31 08:07:38;;;;;;;11.00;5.03;;;128.80;2252.80;;;;;;5044066;28;20025;-77
2023/01/31 08:10:04;;;;;;;;;;;128.80;2252.80;;;;;;5052930;28;20123;-78
2023/01/31 08:12:29;;;;;;;11.65;6.60;;;128.70;2252.80;;;;;;5052325;28;19905;-75
2023/01/31 08:14:55;;;;;;;;;;;128.70;2252.80;;;;;;5063050;28;20017;-75
2023/01/31 08:17:21;;;;;;;17.13;6.30;;;128.80;2252.80;;;;;;5067934;28;19912;-79
2023/01/31 08:19:46;;;;;;;;;;;128.90;2252.80;;;;;;5071395;28;20013;-76
2023/01/31 08:22:12;;;;;;;9.93;4.93;;;128.90;2252.80;;;;;;5037860;28;19909;-76
2023/01/31 08:24:37;;;;;;;;;;;128.90;2252.80;;;;;;5040423;28;20029;-77
2023/01/31 08:27:03;;;;;;;13.45;5.95;;;153.60;2252.80;;;;;;5048617;28;19995;-75
2023/01/31 08:29:29;;;;;;;;;;;153.60;2252.80;;;;;;5044493;28;20390;-77
2023/01/31 08:31:54;;;;;;;15.10;6.72;;;153.60;2252.80;;;;;;5048930;28;19974;-80
2023/01/31 08:34:22;;;;;;;;;;;128.80;2252.80;;;;;;5039039;28;20051;-79
2023/01/31 08:36:48;;;;;;;13.32;5.50;;;153.60;2252.80;;;;;;5067030;28;19908;-79
2023/01/31 08:39:13;;;;;;;;;;;153.60;2252.80;;;;;;5067946;28;20043;-79
2023/01/31 08:41:39;;;;;;;16.27;5.97;;;128.90;2252.80;;;;;;5047836;28;20381;-79
2023/01/31 08:44:05;;;;;;;;;;;128.90;2252.80;;;;;;5046629;28;20025;-79
2023/01/31 08:46:33;;;;;;;12.52;5.78;;;128.80;2252.80;;;;;;5050416;28;19916;-78
2023/01/31 08:49:01;;;;;;;13.93;6.45;;;128.90;2252.80;;;;;;5050986;28;20041;-78
2023/01/31 08:51:27;;;;;;;13.73;6.20;;;128.90;2252.80;;;;;;5042866;28;20021;-77
2023/01/31 08:53:53;;;;;;;;;;;128.90;2252.80;;;;;;5052980;28;20112;-75
2023/01/31 08:56:20;;;;;;;11.73;5.43;;;153.60;2252.80;;;;;;5040404;28;19905;-76
2023/01/31 08:58:46;;;;;;;12.10;5.03;;;153.60;2252.80;;;;;;5065122;28;20155;-77
2023/01/31 09:01:16;;;;;;;;;;;153.80;2252.80;;;;;;5047643;28;20021;-77
2023/01/31 09:03:42;;;;;;;14.00;5.63;;;153.80;2252.80;;;;;;5061513;28;19912;-75
2023/01/31 09:06:14;;;;;;;11.30;5.35;;;154.00;2252.80;;;;;;5063086;28;20035;-76
2023/01/31 09:08:39;;;;;;;14.23;5.28;;;154.20;2252.80;;;;;;5065998;28;20041;-77
2023/01/31 09:11:05;;;;;;;;;;;154.20;2252.80;;;;;;5047928;28;20110;-83
2023/01/31 09:13:33;;;;;;;12.73;4.45;;;154.20;2252.80;;;;;;5052837;28;20049;-78
2023/01/31 09:16:02;;;;;;;9.07;4.00;;;154.20;2252.80;;;;;;5047371;28;20410;-78
2023/01/31 09:18:28;;;;;;;12.20;5.53;;;154.30;2252.80;;;;;;5049235;28;20021;-78
2023/01/31 09:20:54;;;;;;;10.40;4.90;;;154.30;2252.80;;;;;;5047968;28;20020;-77
2023/01/31 09:23:20;;;;;;;;;;;154.40;2252.80;;;;;;5066610;28;20040;-77
2023/01/31 09:25:54;;;;;;;12.30;5.80;;;154.30;2252.80;;;;;;5046886;28;19912;-79
2023/01/31 09:28:20;;;;;;;8.98;4.15;;;154.40;2252.80;;;;;;5063191;28;20028;-78
2023/01/31 09:30:46;;;;;;;9.48;5.43;;;154.50;2252.80;;;;;;5062782;28;20025;-78
2023/01/31 09:33:12;;;;;;;;;;;179.30;2252.80;;;;;;5041405;28;20021;-82
2023/01/31 09:35:38;;;;;;;15.05;6.97;;;179.40;2252.80;;;;;;5047608;28;19912;-77
2023/01/31 09:38:03;;;;;;;;;;;179.50;2252.80;;;;;;5044381;28;20375;-76
2023/01/31 09:40:32;;;;;;;13.40;5.28;;;179.70;2252.80;;;;;;5047887;28;19908;-80
2023/01/31 09:43:01;;;;;;;13.25;5.03;;;179.90;2252.80;;;;;;5042181;28;20033;-75
2023/01/31 09:45:31;;;;;;;10.80;3.55;;;180.00;2252.80;;;;;;5039216;28;20029;-77
2023/01/31 09:48:00;;;;;;;13.25;4.13;;;180.10;2252.80;;;;;;5039617;28;20107;-76
2023/01/31 09:50:39;;;;;;;7.07;3.08;;;204.90;2252.80;;;;;;5046009;28;20029;-73
2023/01/31 09:53:09;;;;;;;20.48;6.70;;;205.00;2252.80;;;;;;5063956;28;20041;-77
2023/01/31 09:55:59;;;;;;;13.65;5.30;;;204.90;2252.80;;;;;;5047342;28;20025;-76
2023/01/31 09:58:31;;;;;;;7.32;3.10;;;204.90;2252.80;;;;;;4968477;28;20030;-82
2023/01/31 10:01:22;;;;;;;16.33;5.97;;;204.80;2252.80;;;;;;4972672;28;20435;-78
2023/01/31 10:04:12;;;;;;;9.18;5.28;;;180.10;2252.80;;;;;;4940650;28;20039;-77
2023/01/31 10:06:59;;;;;;;15.40;4.85;;;204.80;2252.80;;;;;;4936516;29;20038;-79
2023/01/31 10:09:38;;;;;;;11.07;4.70;;;204.80;2252.80;;;;;;4948361;29;20529;-79
2023/01/31 10:12:13;;;;;;;11.18;5.15;;;204.90;2252.80;;;;;;4947123;29;20027;-77
2023/01/31 10:14:52;;;;;;;12.52;5.47;;;205.00;2252.80;;;;;;4949241;29;20082;-78
2023/01/31 10:17:40;;;;;;;13.75;5.05;;;205.10;2252.80;;;;;;4947428;29;20032;-77
2023/01/31 10:20:17;;;;;;;14.00;5.65;;;204.80;2252.80;;;;;;4942073;29;20054;-77
2023/01/31 10:22:45;;;;;;;9.07;2.92;;;180.10;2252.80;;;;;;4948560;29;20044;-85
2023/01/31 10:25:27;;;;;;;12.95;3.50;;;180.10;2252.80;;;;;;4948405;29;20040;-79
2023/01/31 10:27:57;;;;;;;15.98;6.35;;;179.90;2252.80;;;;;;4950568;29;20167;-79
2023/01/31 10:30:31;;;;;;;16.73;4.97;;;180.00;2252.80;;;;;;4934914;29;20035;-79
2023/01/31 10:33:12;;;;;;;15.90;7.80;;;179.90;2252.80;;;;;;4948337;29;20034;-82
2023/01/31 10:35:42;;;;;;;19.60;6.93;;;180.00;2252.80;;;;;;4958651;28;20421;-77
2023/01/31 10:38:23;;;;;;;15.40;7.72;;;180.00;2252.80;;;;;;4972352;28;20133;-76
2023/01/31 10:40:56;;;;;;;17.88;5.90;;;180.00;2252.80;;;;;;5028580;28;20040;-79
2023/01/31 10:43:35;;;;;;;13.38;5.05;;;180.10;2252.80;;;;;;5045237;28;20163;-76
2023/01/31 10:46:07;;;;;;;10.98;4.53;;;180.00;2252.80;;;;;;5043172;28;20049;-75
2023/01/31 10:48:33;;;;;;;11.77;5.50;;;180.00;2252.80;;;;;;5044712;28;20032;-78
2023/01/31 10:51:14;;;;;;;;;;;180.10;2252.80;;;;;;5047952;28;20028;-77
2023/01/31 10:54:25;;;;;;;23.60;6.72;;;180.10;2252.80;;;;;;5064809;28;19920;-78
2023/01/31 10:56:51;;;;;;;13.95;4.40;;;180.10;2252.80;;;;;;5045341;28;20040;-79
2023/01/31 10:59:30;;;;;;;12.07;5.80;;;180.00;2252.80;;;;;;5049032;28;20202;-77
2023/01/31 11:01:57;;;;;;;16.13;5.88;;;180.00;2252.80;;;;;;5053654;28;20075;-84
2023/01/31 11:04:24;;;;;;;11.90;4.90;;;180.00;2252.80;;;;;;5048193;28;20047;-79
2023/01/31 11:06:52;;;;;;;9.52;3.90;;;180.10;2252.80;;;;;;5047650;28;20025;-76
2023/01/31 11:09:18;;;;;;;17.02;6.82;;;204.80;2252.80;;;;;;5046924;28;20112;-72
2023/01/31 11:12:03;;;;;;;10.80;4.30;;;204.80;2252.80;;;;;;5073100;28;20013;-77
2023/01/31 11:14:30;;;;;;;11.38;4.32;;;204.80;2252.80;;;;;;5048812;28;20074;-77
2023/01/31 11:17:03;;;;;;;19.48;5.20;;;204.80;2252.80;;;;;;5049128;28;20021;-77
2023/01/31 11:19:45;;;;;;;9.10;3.58;;;204.90;2252.80;;;;;;5048887;28;20020;-77
2023/01/31 11:22:26;;;;;;;12.23;4.65;;;204.90;2252.80;;;;;;5051908;28;20068;-79
2023/01/31 11:24:52;;;;;;;9.00;4.25;;;204.90;2252.80;;;;;;5056769;28;20045;-79
2023/01/31 11:27:31;;;;;;;16.33;5.13;;;205.40;2252.80;;;;;;5040999;28;20025;-84
2023/01/31 11:29:58;;;;;;;13.63;4.82;;;205.40;2252.80;;;;;;5039593;28;20025;-79
2023/01/31 11:32:30;;;;;;;14.05;5.35;;;205.40;2252.80;;;;;;5048592;28;20039;-79
2023/01/31 11:35:03;;;;;;;15.45;5.60;;;205.30;2252.80;;;;;;5049048;28;20115;-79
2023/01/31 11:37:30;;;;;;;11.82;5.00;;;205.50;2252.80;;;;;;5053979;28;20033;-79
2023/01/31 11:39:57;;;;;;;11.93;5.13;;;205.40;2252.80;;;;;;5048242;28;20017;-76
2023/01/31 11:42:23;;;;;;;17.33;6.18;;;205.30;2252.80;;;;;;5047002;28;20024;-78
2023/01/31 11:45:14;;;;;;;15.38;5.90;;;205.40;2252.80;;;;;;5051496;28;20032;-80
2023/01/31 11:47:51;;;;;;;15.15;5.30;;;205.70;2252.80;;;;;;5054162;28;20064;-80
2023/01/31 11:50:33;;;;;;;5.32;2.83;;;205.70;2252.80;;;;;;5056967;28;20487;-80
2023/01/31 11:53:14;;;;;;;8.45;3.78;;;205.70;2252.80;;;;;;5045424;28;20552;-79
2023/01/31 11:55:42;;;;;;;6.65;2.38;;;205.70;2252.80;;;;;;5042742;28;20068;-79
2023/01/31 11:58:23;;;;;;;7.93;2.97;;;230.90;2252.80;;;;;;5041509;28;20028;-79
2023/01/31 12:00:54;;;;;;;8.18;2.53;;;230.90;2252.80;;;;;;5044759;28;20039;-80
2023/01/31 12:03:21;;;;;;;8.60;2.45;;;230.60;2252.80;;;;;;5055646;28;20078;-80
2023/01/31 12:05:51;;;;;;;8.23;3.20;;;230.50;2252.80;;;;;;5047118;28;20047;-80
2023/01/31 12:08:36;;;;;;;9.30;2.80;;;205.70;2252.80;;;;;;5045135;28;20387;-81
2023/01/31 12:11:20;;;;;;;8.90;3.47;;;205.60;2252.80;;;;;;5051480;28;20075;-81
2023/01/31 12:13:59;;;;;;;12.85;3.65;;;205.50;2252.80;;;;;;5069388;28;20394;-80
2023/01/31 12:16:27;;;;;;;5.95;2.05;;;205.40;2252.80;;;;;;5049081;28;20021;-80
2023/01/31 12:19:07;;;;;;;8.30;3.42;;;205.20;2252.80;;;;;;5058895;28;20029;-79
2023/01/31 12:21:59;;;;;;;14.02;3.47;;;205.20;2252.80;;;;;;5050212;28;20033;-78
2023/01/31 12:25:17;;;;;;;13.77;5.80;;;205.10;2252.80;;;;;;5063084;28;20071;-78
2023/01/31 12:28:03;;;;;;;12.65;3.45;;;205.10;2252.80;;;;;;4967068;28;20051;-77
2023/01/31 12:30:47;;;;;;;15.82;4.00;;;205.10;2252.80;;;;;;4992623;28;20139;-76
2023/01/31 12:33:54;;;;;;;10.60;3.63;;;205.10;2252.80;;;;;;4965743;28;20424;-75
2023/01/31 12:36:41;;;;;;;11.55;3.47;;;205.00;2252.80;;;;;;4974246;28;20039;-74
2023/01/31 12:39:27;;;;;;;9.00;3.47;;;205.00;2252.80;;;;;;4962265;28;20022;-75
2023/01/31 12:42:10;;;;;;;8.07;3.03;;;205.20;2252.80;;;;;;4975863;28;20121;-76
2023/01/31 12:44:48;;;;;;;12.50;3.25;;;205.30;2252.80;;;;;;4975788;28;20177;-77
2023/01/31 12:47:32;;;;;;;7.80;2.63;;;205.50;2252.80;;;;;;4975194;28;20531;-76